Terminal Aerodrome Forecast
Issued by NWS

Home | Current Version | Previous Version | Graphics & Text | Print | Product List | Glossary On
Versions: 1 2 3 4 5 6 7 8 9 10 11 12 13 14 15 16 17 18 19
000
FTUS43 KBIS 250500
TAFDIK
TAF
KDIK 250531Z 2506/2606 32006KT P6SM BKN045 OVC070
      TEMPO 2506/2509 SCT070
     FM250900 32008KT P6SM SCT015 BKN025
      TEMPO 2509/2511 BKN015 OVC025
     FM251100 35012KT 4SM -SHSN BR BKN007 OVC018
      TEMPO 2511/2515 2SM -SN BR OVC009
     FM251600 34015KT 5SM -SHSN SCT008 OVC011
     FM251900 33013G18KT P6SM -SHSN OVC015
     FM260300 33008KT P6SM SCT015 SCT030=

USA.gov is the U.S. government's official web portal to all federal, state and local government web resources and services.